Station Historical Data
Daily Summary for February 18, 2017 Units:  Both    English   Metric
« Previous Day
Next Day »
Daily Weekly Monthly Yearly Custom
  High: Low: Average:
Temperature: 57.1 °F /  13.9 °C 30.4 °F /  -0.9 °C 45.3 °F /  7.4 °C
Dew Point: 40.1 °F /  4.5 °C 24.8 °F /  -4 °C 34.9 °F /  1.6 °C
Humidity: 87% 50% 68%
Wind Speed: 20.0mph /  32.2km/h - 6.7mph /  10.8km/h
Wind Gust: 32.0mph /  51.5km/h - -
Wind- - SW
Pressure: 29.75 in /  1007.3 hPa 29.59 in /  1001.9 hPa -
Precipitation: 0.00 in /  0 mm    
Historical Graphs
 
 
Tabular Data for February 18, 2017
Time Temperature Dew Point Pressure Wind Wind Speed Wind Gust Humidity Rainfall Rate (Hourly)
00:04 34.8 °F /  1.6 °C 25.7 °F /  -3.5 °C 29.75in /  1007.3hPa Calm   1.0mph /  1.6km/h 69% 0.00in /  0mm
00:09 34.8 °F /  1.6 °C 25.7 °F /  -3.5 °C 29.74in /  1007hPa Calm     69% 0.00in /  0mm
00:14 34.9 °F /  1.6 °C 25.8 °F /  -3.4 °C 29.74in /  1007hPa Calm     69% 0.00in /  0mm
00:19 35.0 °F /  1.7 °C 25.9 °F /  -3.4 °C 29.75in /  1007.3hPa Calm     69% 0.00in /  0mm
00:24 35.2 °F /  1.8 °C 26.0 °F /  -3.3 °C 29.74in /  1007hPa Calm     69% 0.00in /  0mm
00:29 35.2 °F /  1.8 °C 25.7 °F /  -3.5 °C 29.74in /  1007hPa Calm     68% 0.00in /  0mm
00:34 35.1 °F /  1.7 °C 25.6 °F /  -3.6 °C 29.74in /  1007hPa Calm     68% 0.00in /  0mm
00:39 34.9 °F /  1.6 °C 25.8 °F /  -3.4 °C 29.74in /  1007hPa Calm     69% 0.00in /  0mm
00:44 34.8 °F /  1.6 °C 25.7 °F /  -3.5 °C 29.74in /  1007hPa Calm     69% 0.00in /  0mm
00:49 34.7 °F /  1.5 °C 25.6 °F /  -3.6 °C 29.74in /  1007hPa Calm     69% 0.00in /  0mm
00:54 34.6 °F /  1.4 °C 25.8 °F /  -3.4 °C 29.74in /  1007hPa Calm     70% 0.00in /  0mm
00:59 34.5 °F /  1.4 °C 25.7 °F /  -3.5 °C 29.74in /  1007hPa Calm     70% 0.00in /  0mm
01:04 34.1 °F /  1.2 °C 25.3 °F /  -3.7 °C 29.74in /  1007hPa Calm     70% 0.00in /  0mm
01:09 33.8 °F /  1 °C 25.4 °F /  -3.7 °C 29.73in /  1006.7hPa Calm     71% 0.00in /  0mm
01:14 33.6 °F /  0.9 °C 25.5 °F /  -3.6 °C 29.73in /  1006.7hPa Calm     72% 0.00in /  0mm
01:19 33.4 °F /  0.8 °C 25.3 °F /  -3.7 °C 29.73in /  1006.7hPa Calm     72% 0.00in /  0mm
01:24 33.1 °F /  0.6 °C 25.1 °F /  -3.8 °C 29.73in /  1006.7hPa Calm     72% 0.00in /  0mm
01:29 32.6 °F /  0.3 °C 25.2 °F /  -3.8 °C 29.73in /  1006.7hPa Calm     74% 0.00in /  0mm
01:34 32.3 °F /  0.2 °C 24.9 °F /  -3.9 °C 29.73in /  1006.7hPa Calm     74% 0.00in /  0mm
01:39 32.3 °F /  0.2 °C 25.6 °F /  -3.6 °C 29.72in /  1006.3hPa Calm     76% 0.00in /  0mm
01:44 32.6 °F /  0.3 °C 25.6 °F /  -3.6 °C 29.72in /  1006.3hPa Calm     75% 0.00in /  0mm
01:49 32.6 °F /  0.3 °C 25.6 °F /  -3.6 °C 29.72in /  1006.3hPa Calm     75% 0.00in /  0mm
01:54 32.3 °F /  0.2 °C 25.3 °F /  -3.7 °C 29.72in /  1006.3hPa Calm     75% 0.00in /  0mm
01:59 31.9 °F /  -0.1 °C 25.2 °F /  -3.8 °C 29.72in /  1006.3hPa Calm     76% 0.00in /  0mm
02:04 31.5 °F /  -0.3 °C 24.8 °F /  -4 °C 29.72in /  1006.3hPa Calm     76% 0.00in /  0mm
02:09 31.4 °F /  -0.3 °C 25.0 °F /  -3.9 °C 29.72in /  1006.3hPa Calm     77% 0.00in /  0mm
02:14 31.2 °F /  -0.4 °C 24.8 °F /  -4 °C 29.72in /  1006.3hPa Calm     77% 0.00in /  0mm
02:19 31.2 °F /  -0.4 °C 25.1 °F /  -3.8 °C 29.72in /  1006.3hPa Calm     78% 0.00in /  0mm
02:24 31.0 °F /  -0.6 °C 24.9 °F /  -3.9 °C 29.72in /  1006.3hPa Calm     78% 0.00in /  0mm
02:29 31.0 °F /  -0.6 °C 24.9 °F /  -3.9 °C 29.71in /  1006hPa Calm     78% 0.00in /  0mm
02:34 30.8 °F /  -0.7 °C 25.1 °F /  -3.8 °C 29.71in /  1006hPa Calm     79% 0.00in /  0mm
02:39 30.8 °F /  -0.7 °C 25.1 °F /  -3.8 °C 29.71in /  1006hPa Calm     79% 0.00in /  0mm
02:44 30.6 °F /  -0.8 °C 24.9 °F /  -3.9 °C 29.71in /  1006hPa Calm     79% 0.00in /  0mm
02:49 30.6 °F /  -0.8 °C 24.9 °F /  -3.9 °C 29.71in /  1006hPa Calm     79% 0.00in /  0mm
02:54 30.5 °F /  -0.8 °C 25.1 °F /  -3.8 °C 29.70in /  1005.6hPa Calm     80% 0.00in /  0mm
02:59 30.4 °F /  -0.9 °C 25.0 °F /  -3.9 °C 29.70in /  1005.6hPa Calm     80% 0.00in /  0mm
03:04 30.4 °F /  -0.9 °C 25.0 °F /  -3.9 °C 29.70in /  1005.6hPa Calm     80% 0.00in /  0mm
03:09 30.4 °F /  -0.9 °C 25.0 °F /  -3.9 °C 29.70in /  1005.6hPa Calm     80% 0.00in /  0mm
03:14 30.7 °F /  -0.7 °C 25.6 °F /  -3.6 °C 29.70in /  1005.6hPa Calm     81% 0.00in /  0mm
03:19 31.9 °F /  -0.1 °C 27.0 °F /  -2.8 °C 29.69in /  1005.3hPa Calm     82% 0.00in /  0mm
03:24 33.2 °F /  0.7 °C 27.7 °F /  -2.4 °C 29.69in /  1005.3hPa Calm   3.0mph /  4.8km/h 80% 0.00in /  0mm
03:29 34.5 °F /  1.4 °C 29.0 °F /  -1.7 °C 29.69in /  1005.3hPa Calm   4.0mph /  6.4km/h 80% 0.00in /  0mm
03:34 35.5 °F /  1.9 °C 29.6 °F /  -1.3 °C 29.69in /  1005.3hPa SSW 1.0mph /  1.6km/h 4.0mph /  6.4km/h 79% 0.00in /  0mm
03:39 36.0 °F /  2.2 °C 29.8 °F /  -1.2 °C 29.69in /  1005.3hPa SW 2.0mph /  3.2km/h 3.0mph /  4.8km/h 78% 0.00in /  0mm
03:44 36.6 °F /  2.6 °C 30.4 °F /  -0.9 °C 29.69in /  1005.3hPa SSW 1.0mph /  1.6km/h 3.0mph /  4.8km/h 78% 0.00in /  0mm
03:49 37.7 °F /  3.2 °C 31.8 °F /  -0.1 °C 29.69in /  1005.3hPa SSW 3.0mph /  4.8km/h 5.0mph /  8km/h 79% 0.00in /  0mm
03:54 39.3 °F /  4.1 °C 32.7 °F /  0.4 °C 29.68in /  1005hPa SW 2.0mph /  3.2km/h 6.0mph /  9.7km/h 77% 0.00in /  0mm
03:59 41.0 °F /  5 °C 33.3 °F /  0.7 °C 29.68in /  1005hPa SSW 2.0mph /  3.2km/h 6.0mph /  9.7km/h 74% 0.00in /  0mm
04:04 41.9 °F /  5.5 °C 33.9 °F /  1.1 °C 29.68in /  1005hPa SW 2.0mph /  3.2km/h 7.0mph /  11.3km/h 73% 0.00in /  0mm
04:09 42.6 °F /  5.9 °C 34.2 °F /  1.2 °C 29.68in /  1005hPa SSW 3.0mph /  4.8km/h 7.0mph /  11.3km/h 72% 0.00in /  0mm
04:14 43.1 °F /  6.2 °C 34.3 °F /  1.3 °C 29.67in /  1004.6hPa SSW 4.0mph /  6.4km/h 9.0mph /  14.5km/h 71% 0.00in /  0mm
04:19 43.2 °F /  6.2 °C 34.4 °F /  1.3 °C 29.67in /  1004.6hPa SW 3.0mph /  4.8km/h 9.0mph /  14.5km/h 71% 0.00in /  0mm
04:24 43.4 °F /  6.3 °C 34.6 °F /  1.4 °C 29.67in /  1004.6hPa SW 4.0mph /  6.4km/h 9.0mph /  14.5km/h 71% 0.00in /  0mm
04:29 43.6 °F /  6.4 °C 34.8 °F /  1.6 °C 29.67in /  1004.6hPa SW 4.0mph /  6.4km/h 9.0mph /  14.5km/h 71% 0.00in /  0mm
04:34 43.6 °F /  6.4 °C 34.8 °F /  1.6 °C 29.67in /  1004.6hPa SW 4.0mph /  6.4km/h 7.0mph /  11.3km/h 71% 0.00in /  0mm
04:39 43.6 °F /  6.4 °C 34.8 °F /  1.6 °C 29.67in /  1004.6hPa SW 4.0mph /  6.4km/h 7.0mph /  11.3km/h 71% 0.00in /  0mm
04:44 43.6 °F /  6.4 °C 34.8 °F /  1.6 °C 29.67in /  1004.6hPa SW 4.0mph /  6.4km/h 10.0mph /  16.1km/h 71% 0.00in /  0mm
04:49 43.7 °F /  6.5 °C 34.9 °F /  1.6 °C 29.67in /  1004.6hPa South 3.0mph /  4.8km/h 8.0mph /  12.9km/h 71% 0.00in /  0mm
04:54 43.8 °F /  6.6 °C 35.0 °F /  1.7 °C 29.67in /  1004.6hPa SW 3.0mph /  4.8km/h 8.0mph /  12.9km/h 71% 0.00in /  0mm
04:59 44.1 °F /  6.7 °C 35.3 °F /  1.8 °C 29.67in /  1004.6hPa SW 3.0mph /  4.8km/h 7.0mph /  11.3km/h 71% 0.00in /  0mm
05:04 44.2 °F /  6.8 °C 35.4 °F /  1.9 °C 29.67in /  1004.6hPa WSW 5.0mph /  8km/h 9.0mph /  14.5km/h 71% 0.00in /  0mm
05:09 44.6 °F /  7 °C 35.8 °F /  2.1 °C 29.67in /  1004.6hPa SW 5.0mph /  8km/h 8.0mph /  12.9km/h 71% 0.00in /  0mm
05:14 45.1 °F /  7.3 °C 35.9 °F /  2.2 °C 29.67in /  1004.6hPa SW 5.0mph /  8km/h 9.0mph /  14.5km/h 70% 0.00in /  0mm
05:19 45.3 °F /  7.4 °C 35.7 °F /  2.1 °C 29.67in /  1004.6hPa SW 5.0mph /  8km/h 10.0mph /  16.1km/h 69% 0.00in /  0mm
05:24 45.8 °F /  7.7 °C 36.2 °F /  2.3 °C 29.67in /  1004.6hPa SW 5.0mph /  8km/h 12.0mph /  19.3km/h 69% 0.00in /  0mm
05:29 46.2 °F /  7.9 °C 36.2 °F /  2.3 °C 29.67in /  1004.6hPa SW 6.0mph /  9.7km/h 12.0mph /  19.3km/h 68% 0.00in /  0mm
05:34 46.7 °F /  8.2 °C 36.3 °F /  2.4 °C 29.67in /  1004.6hPa WSW 5.0mph /  8km/h 13.0mph /  20.9km/h 67% 0.00in /  0mm
05:39 46.9 °F /  8.3 °C 36.5 °F /  2.5 °C 29.67in /  1004.6hPa SW 5.0mph /  8km/h 12.0mph /  19.3km/h 67% 0.00in /  0mm
05:44 47.1 °F /  8.4 °C 36.7 °F /  2.6 °C 29.67in /  1004.6hPa SW 8.0mph /  12.9km/h 18.0mph /  29km/h 67% 0.00in /  0mm
05:49 47.1 °F /  8.4 °C 36.3 °F /  2.4 °C 29.67in /  1004.6hPa SW 9.0mph /  14.5km/h 18.0mph /  29km/h 66% 0.00in /  0mm
05:54 47.0 °F /  8.3 °C 36.2 °F /  2.3 °C 29.67in /  1004.6hPa SW 12.0mph /  19.3km/h 18.0mph /  29km/h 66% 0.00in /  0mm
05:59 47.0 °F /  8.3 °C 36.2 °F /  2.3 °C 29.67in /  1004.6hPa WSW 7.0mph /  11.3km/h 18.0mph /  29km/h 66% 0.00in /  0mm
06:04 46.8 °F /  8.2 °C 36.4 °F /  2.4 °C 29.67in /  1004.6hPa SW 9.0mph /  14.5km/h 13.0mph /  20.9km/h 67% 0.00in /  0mm
06:09 46.5 °F /  8.1 °C 36.1 °F /  2.3 °C 29.67in /  1004.6hPa SSW 8.0mph /  12.9km/h 22.0mph /  35.4km/h 67% 0.00in /  0mm
06:14 46.1 °F /  7.8 °C 36.1 °F /  2.3 °C 29.67in /  1004.6hPa SW 8.0mph /  12.9km/h 22.0mph /  35.4km/h 68% 0.00in /  0mm
06:19 45.6 °F /  7.6 °C 35.6 °F /  2 °C 29.67in /  1004.6hPa SW 7.0mph /  11.3km/h 16.0mph /  25.7km/h 68% 0.00in /  0mm
06:24 45.2 °F /  7.3 °C 35.6 °F /  2 °C 29.67in /  1004.6hPa SW 11.0mph /  17.7km/h 20.0mph /  32.2km/h 69% 0.00in /  0mm
06:29 44.9 °F /  7.2 °C 35.7 °F /  2.1 °C 29.67in /  1004.6hPa WSW 8.0mph /  12.9km/h 16.0mph /  25.7km/h 70% 0.00in /  0mm
06:34 44.5 °F /  6.9 °C 35.3 °F /  1.8 °C 29.68in /  1005hPa WSW 6.0mph /  9.7km/h 16.0mph /  25.7km/h 70% 0.00in /  0mm
06:39 44.2 °F /  6.8 °C 35.4 °F /  1.9 °C 29.67in /  1004.6hPa SSW 6.0mph /  9.7km/h 16.0mph /  25.7km/h 71% 0.00in /  0mm
06:44 43.8 °F /  6.6 °C 35.0 °F /  1.7 °C 29.67in /  1004.6hPa SW 7.0mph /  11.3km/h 16.0mph /  25.7km/h 71% 0.00in /  0mm
06:49 43.6 °F /  6.4 °C 35.2 °F /  1.8 °C 29.68in /  1005hPa SW 7.0mph /  11.3km/h 15.0mph /  24.1km/h 72% 0.00in /  0mm
06:54 43.3 °F /  6.3 °C 34.9 °F /  1.6 °C 29.67in /  1004.6hPa SW 7.0mph /  11.3km/h 15.0mph /  24.1km/h 72% 0.00in /  0mm
06:59 43.1 °F /  6.2 °C 35.0 °F /  1.7 °C 29.67in /  1004.6hPa SW 7.0mph /  11.3km/h 15.0mph /  24.1km/h 73% 0.00in /  0mm
07:04 43.0 °F /  6.1 °C 34.9 °F /  1.6 °C 29.67in /  1004.6hPa SW 9.0mph /  14.5km/h 14.0mph /  22.5km/h 73% 0.00in /  0mm
07:09 42.8 °F /  6 °C 34.7 °F /  1.5 °C 29.67in /  1004.6hPa SW 5.0mph /  8km/h 12.0mph /  19.3km/h 73% 0.00in /  0mm
07:14 42.5 °F /  5.8 °C 34.8 °F /  1.6 °C 29.67in /  1004.6hPa SW 6.0mph /  9.7km/h 12.0mph /  19.3km/h 74% 0.00in /  0mm
07:19 42.4 °F /  5.8 °C 34.7 °F /  1.5 °C 29.67in /  1004.6hPa SW 6.0mph /  9.7km/h 11.0mph /  17.7km/h 74% 0.00in /  0mm
07:24 42.4 °F /  5.8 °C 34.7 °F /  1.5 °C 29.67in /  1004.6hPa SW 2.0mph /  3.2km/h 10.0mph /  16.1km/h 74% 0.00in /  0mm
07:29 42.4 °F /  5.8 °C 34.7 °F /  1.5 °C 29.67in /  1004.6hPa SW 11.0mph /  17.7km/h 13.0mph /  20.9km/h 74% 0.00in /  0mm
07:34 42.8 °F /  6 °C 35.1 °F /  1.7 °C 29.67in /  1004.6hPa SW 5.0mph /  8km/h 11.0mph /  17.7km/h 74% 0.00in /  0mm
07:39 43.3 °F /  6.3 °C 35.2 °F /  1.8 °C 29.67in /  1004.6hPa SW 11.0mph /  17.7km/h 13.0mph /  20.9km/h 73% 0.00in /  0mm
07:44 43.4 °F /  6.3 °C 35.3 °F /  1.8 °C 29.67in /  1004.6hPa SW 7.0mph /  11.3km/h 13.0mph /  20.9km/h 73% 0.00in /  0mm
07:49 43.8 °F /  6.6 °C 35.4 °F /  1.9 °C 29.67in /  1004.6hPa WSW 10.0mph /  16.1km/h 14.0mph /  22.5km/h 72% 0.00in /  0mm
07:54 44.1 °F /  6.7 °C 35.6 °F /  2 °C 29.67in /  1004.6hPa SW 7.0mph /  11.3km/h 14.0mph /  22.5km/h 72% 0.00in /  0mm
07:59 44.5 °F /  6.9 °C 35.7 °F /  2.1 °C 29.67in /  1004.6hPa WSW 6.0mph /  9.7km/h 14.0mph /  22.5km/h 71% 0.00in /  0mm
08:04 45.0 °F /  7.2 °C 35.8 °F /  2.1 °C 29.67in /  1004.6hPa WSW 7.0mph /  11.3km/h 12.0mph /  19.3km/h 70% 0.00in /  0mm
08:09 45.6 °F /  7.6 °C 36.0 °F /  2.2 °C 29.67in /  1004.6hPa WSW 8.0mph /  12.9km/h 17.0mph /  27.4km/h 69% 0.00in /  0mm
08:14 46.1 °F /  7.8 °C 36.1 °F /  2.3 °C 29.67in /  1004.6hPa WSW 8.0mph /  12.9km/h 17.0mph /  27.4km/h 68% 0.00in /  0mm
08:19 46.4 °F /  8 °C 36.0 °F /  2.2 °C 29.67in /  1004.6hPa SW 4.0mph /  6.4km/h 15.0mph /  24.1km/h 67% 0.00in /  0mm
08:24 46.6 °F /  8.1 °C 36.2 °F /  2.3 °C 29.67in /  1004.6hPa SW 8.0mph /  12.9km/h 19.0mph /  30.6km/h 67% 0.00in /  0mm
08:29 46.9 °F /  8.3 °C 36.5 °F /  2.5 °C 29.67in /  1004.6hPa SW 8.0mph /  12.9km/h 19.0mph /  30.6km/h 67% 0.00in /  0mm
08:34 47.4 °F /  8.6 °C 36.6 °F /  2.6 °C 29.67in /  1004.6hPa SW 9.0mph /  14.5km/h 14.0mph /  22.5km/h 66% 0.00in /  0mm
08:39 48.3 °F /  9.1 °C 37.1 °F /  2.8 °C 29.67in /  1004.6hPa SW 7.0mph /  11.3km/h 14.0mph /  22.5km/h 65% 0.00in /  0mm
08:44 49.3 °F /  9.6 °C 37.6 °F /  3.1 °C 29.67in /  1004.6hPa SW 7.0mph /  11.3km/h 12.0mph /  19.3km/h 64% 0.00in /  0mm
08:49 50.0 °F /  10 °C 37.5 °F /  3.1 °C 29.66in /  1004.3hPa SW 7.0mph /  11.3km/h 17.0mph /  27.4km/h 62% 0.00in /  0mm
08:54 50.3 °F /  10.2 °C 37.4 °F /  3 °C 29.66in /  1004.3hPa SW 7.0mph /  11.3km/h 17.0mph /  27.4km/h 61% 0.00in /  0mm
08:59 50.4 °F /  10.2 °C 37.4 °F /  3 °C 29.66in /  1004.3hPa WSW 8.0mph /  12.9km/h 15.0mph /  24.1km/h 61% 0.00in /  0mm
09:04 51.1 °F /  10.6 °C 37.7 °F /  3.2 °C 29.66in /  1004.3hPa SW 8.0mph /  12.9km/h 16.0mph /  25.7km/h 60% 0.00in /  0mm
09:09 51.6 °F /  10.9 °C 38.2 °F /  3.4 °C 29.66in /  1004.3hPa WSW 6.0mph /  9.7km/h 18.0mph /  29km/h 60% 0.00in /  0mm
09:14 51.9 °F /  11.1 °C 38.0 °F /  3.3 °C 29.65in /  1003.9hPa SW 10.0mph /  16.1km/h 18.0mph /  29km/h 59% 0.00in /  0mm
09:19 52.2 °F /  11.2 °C 37.9 °F /  3.3 °C 29.65in /  1003.9hPa SW 9.0mph /  14.5km/h 18.0mph /  29km/h 58% 0.00in /  0mm
09:24 52.5 °F /  11.4 °C 38.1 °F /  3.4 °C 29.65in /  1003.9hPa SW 10.0mph /  16.1km/h 19.0mph /  30.6km/h 58% 0.00in /  0mm
09:29 52.8 °F /  11.6 °C 38.4 °F /  3.6 °C 29.65in /  1003.9hPa SW 10.0mph /  16.1km/h 19.0mph /  30.6km/h 58% 0.00in /  0mm
09:34 53.1 °F /  11.7 °C 38.3 °F /  3.5 °C 29.64in /  1003.6hPa SW 8.0mph /  12.9km/h 23.0mph /  37km/h 57% 0.00in /  0mm
09:39 53.2 °F /  11.8 °C 37.9 °F /  3.3 °C 29.65in /  1003.9hPa South 19.0mph /  30.6km/h 23.0mph /  37km/h 56% 0.00in /  0mm
09:44 53.4 °F /  11.9 °C 38.1 °F /  3.4 °C 29.65in /  1003.9hPa SW 13.0mph /  20.9km/h 23.0mph /  37km/h 56% 0.00in /  0mm
09:49 53.6 °F /  12 °C 38.7 °F /  3.7 °C 29.65in /  1003.9hPa SE 12.0mph /  19.3km/h 24.0mph /  38.6km/h 57% 0.00in /  0mm
09:54 53.8 °F /  12.1 °C 38.0 °F /  3.3 °C 29.65in /  1003.9hPa SW 12.0mph /  19.3km/h 24.0mph /  38.6km/h 55% 0.00in /  0mm
09:59 53.9 °F /  12.2 °C 38.6 °F /  3.7 °C 29.65in /  1003.9hPa SW 7.0mph /  11.3km/h 25.0mph /  40.2km/h 56% 0.00in /  0mm
10:04 54.1 °F /  12.3 °C 37.8 °F /  3.2 °C 29.65in /  1003.9hPa SW 13.0mph /  20.9km/h 25.0mph /  40.2km/h 54% 0.00in /  0mm
10:09 54.1 °F /  12.3 °C 38.3 °F /  3.5 °C 29.65in /  1003.9hPa WSW 13.0mph /  20.9km/h 25.0mph /  40.2km/h 55% 0.00in /  0mm
10:14 54.0 °F /  12.2 °C 38.2 °F /  3.4 °C 29.64in /  1003.6hPa SW 13.0mph /  20.9km/h 25.0mph /  40.2km/h 55% 0.00in /  0mm
10:19 54.1 °F /  12.3 °C 38.3 °F /  3.5 °C 29.64in /  1003.6hPa SW 13.0mph /  20.9km/h 23.0mph /  37km/h 55% 0.00in /  0mm
10:24 54.4 °F /  12.4 °C 38.1 °F /  3.4 °C 29.64in /  1003.6hPa SW 15.0mph /  24.1km/h 27.0mph /  43.5km/h 54% 0.00in /  0mm
10:29 54.6 °F /  12.6 °C 38.3 °F /  3.5 °C 29.64in /  1003.6hPa West 10.0mph /  16.1km/h 27.0mph /  43.5km/h 54% 0.00in /  0mm
10:34 54.7 °F /  12.6 °C 38.4 °F /  3.6 °C 29.63in /  1003.3hPa SW 14.0mph /  22.5km/h 27.0mph /  43.5km/h 54% 0.00in /  0mm
10:39 55.1 °F /  12.8 °C 38.3 °F /  3.5 °C 29.63in /  1003.3hPa SW 14.0mph /  22.5km/h 26.0mph /  41.8km/h 53% 0.00in /  0mm
10:44 55.2 °F /  12.9 °C 38.4 °F /  3.6 °C 29.63in /  1003.3hPa SW 14.0mph /  22.5km/h 26.0mph /  41.8km/h 53% 0.00in /  0mm
10:49 55.4 °F /  13 °C 38.1 °F /  3.4 °C 29.63in /  1003.3hPa SW 12.0mph /  19.3km/h 23.0mph /  37km/h 52% 0.00in /  0mm
10:54 55.7 °F /  13.2 °C 38.8 °F /  3.8 °C 29.63in /  1003.3hPa WSW 8.0mph /  12.9km/h 22.0mph /  35.4km/h 53% 0.00in /  0mm
10:59 55.9 °F /  13.3 °C 38.5 °F /  3.6 °C 29.63in /  1003.3hPa WSW 11.0mph /  17.7km/h 22.0mph /  35.4km/h 52% 0.00in /  0mm
11:04 55.5 °F /  13.1 °C 38.1 °F /  3.4 °C 29.63in /  1003.3hPa WSW 17.0mph /  27.4km/h 23.0mph /  37km/h 52% 0.00in /  0mm
11:09 55.3 °F /  12.9 °C 38.0 °F /  3.3 °C 29.63in /  1003.3hPa WSW 14.0mph /  22.5km/h 23.0mph /  37km/h 52% 0.00in /  0mm
11:19 54.8 °F /  12.7 °C 38.0 °F /  3.3 °C 29.63in /  1003.3hPa West 19.0mph /  30.6km/h 24.0mph /  38.6km/h 53% 0.00in /  0mm
11:24 54.7 °F /  12.6 °C 38.4 °F /  3.6 °C 29.63in /  1003.3hPa SW 19.0mph /  30.6km/h 26.0mph /  41.8km/h 54% 0.00in /  0mm
11:29 54.7 °F /  12.6 °C 38.4 °F /  3.6 °C 29.63in /  1003.3hPa SSW 8.0mph /  12.9km/h 21.0mph /  33.8km/h 54% 0.00in /  0mm
11:34 54.7 °F /  12.6 °C 38.4 °F /  3.6 °C 29.63in /  1003.3hPa WSW 14.0mph /  22.5km/h 27.0mph /  43.5km/h 54% 0.00in /  0mm
11:39 55.3 °F /  12.9 °C 38.0 °F /  3.3 °C 29.64in /  1003.6hPa NNW 13.0mph /  20.9km/h 26.0mph /  41.8km/h 52% 0.00in /  0mm
11:44 55.4 °F /  13 °C 38.5 °F /  3.6 °C 29.64in /  1003.6hPa SW 11.0mph /  17.7km/h 25.0mph /  40.2km/h 53% 0.00in /  0mm
11:49 55.9 °F /  13.3 °C 39.0 °F /  3.9 °C 29.63in /  1003.3hPa WSW 13.0mph /  20.9km/h 26.0mph /  41.8km/h 53% 0.00in /  0mm
11:54 56.3 °F /  13.5 °C 38.9 °F /  3.8 °C 29.63in /  1003.3hPa SW 18.0mph /  29km/h 31.0mph /  49.9km/h 52% 0.00in /  0mm
11:59 56.1 °F /  13.4 °C 38.7 °F /  3.7 °C 29.63in /  1003.3hPa WSW 13.0mph /  20.9km/h 31.0mph /  49.9km/h 52% 0.00in /  0mm
12:04 56.0 °F /  13.3 °C 38.1 °F /  3.4 °C 29.63in /  1003.3hPa WSW 8.0mph /  12.9km/h 26.0mph /  41.8km/h 51% 0.00in /  0mm
12:09 56.0 °F /  13.3 °C 39.1 °F /  3.9 °C 29.62in /  1002.9hPa WSW 11.0mph /  17.7km/h 22.0mph /  35.4km/h 53% 0.00in /  0mm
12:14 56.0 °F /  13.3 °C 38.1 °F /  3.4 °C 29.62in /  1002.9hPa WSW 13.0mph /  20.9km/h 24.0mph /  38.6km/h 51% 0.00in /  0mm
12:19 56.2 °F /  13.4 °C 38.8 °F /  3.8 °C 29.62in /  1002.9hPa WSW 12.0mph /  19.3km/h 24.0mph /  38.6km/h 52% 0.00in /  0mm
12:24 56.2 °F /  13.4 °C 38.8 °F /  3.8 °C 29.62in /  1002.9hPa WSW 12.0mph /  19.3km/h 24.0mph /  38.6km/h 52% 0.00in /  0mm
12:29 55.8 °F /  13.2 °C 38.4 °F /  3.6 °C 29.62in /  1002.9hPa WSW 13.0mph /  20.9km/h 27.0mph /  43.5km/h 52% 0.00in /  0mm
12:34 56.0 °F /  13.3 °C 38.6 °F /  3.7 °C 29.62in /  1002.9hPa WSW 13.0mph /  20.9km/h 27.0mph /  43.5km/h 52% 0.00in /  0mm
12:39 56.3 °F /  13.5 °C 38.4 °F /  3.6 °C 29.62in /  1002.9hPa WSW 13.0mph /  20.9km/h 23.0mph /  37km/h 51% 0.00in /  0mm
12:44 56.3 °F /  13.5 °C 38.4 °F /  3.6 °C 29.62in /  1002.9hPa SW 20.0mph /  32.2km/h 25.0mph /  40.2km/h 51% 0.00in /  0mm
12:49 56.2 °F /  13.4 °C 38.3 °F /  3.5 °C 29.61in /  1002.6hPa NW 9.0mph /  14.5km/h 26.0mph /  41.8km/h 51% 0.00in /  0mm
12:54 56.3 °F /  13.5 °C 38.4 °F /  3.6 °C 29.61in /  1002.6hPa WSW 11.0mph /  17.7km/h 25.0mph /  40.2km/h 51% 0.00in /  0mm
12:59 56.7 °F /  13.7 °C 38.8 °F /  3.8 °C 29.61in /  1002.6hPa SW 11.0mph /  17.7km/h 22.0mph /  35.4km/h 51% 0.00in /  0mm
13:04 56.8 °F /  13.8 °C 38.3 °F /  3.5 °C 29.60in /  1002.3hPa SW 16.0mph /  25.7km/h 24.0mph /  38.6km/h 50% 0.00in /  0mm
13:09 57.1 °F /  13.9 °C 38.6 °F /  3.7 °C 29.60in /  1002.3hPa WSW 9.0mph /  14.5km/h 25.0mph /  40.2km/h 50% 0.00in /  0mm
13:14 56.5 °F /  13.6 °C 38.1 °F /  3.4 °C 29.60in /  1002.3hPa WSW 14.0mph /  22.5km/h 27.0mph /  43.5km/h 50% 0.00in /  0mm
13:19 56.5 °F /  13.6 °C 38.6 °F /  3.7 °C 29.59in /  1001.9hPa WSW 13.0mph /  20.9km/h 27.0mph /  43.5km/h 51% 0.00in /  0mm
13:24 56.7 °F /  13.7 °C 38.3 °F /  3.5 °C 29.59in /  1001.9hPa WSW 12.0mph /  19.3km/h 25.0mph /  40.2km/h 50% 0.00in /  0mm
13:34 55.2 °F /  12.9 °C 37.4 °F /  3 °C 29.59in /  1001.9hPa WSW 19.0mph /  30.6km/h 26.0mph /  41.8km/h 51% 0.00in /  0mm
13:39 54.8 °F /  12.7 °C 38.0 °F /  3.3 °C 29.59in /  1001.9hPa South 10.0mph /  16.1km/h 26.0mph /  41.8km/h 53% 0.00in /  0mm
13:44 55.6 °F /  13.1 °C 38.2 °F /  3.4 °C 29.60in /  1002.3hPa WSW 13.0mph /  20.9km/h 26.0mph /  41.8km/h 52% 0.00in /  0mm
13:49 55.9 °F /  13.3 °C 38.0 °F /  3.3 °C 29.60in /  1002.3hPa WNW 7.0mph /  11.3km/h 21.0mph /  33.8km/h 51% 0.00in /  0mm
13:54 55.4 °F /  13 °C 38.1 °F /  3.4 °C 29.61in /  1002.6hPa West 11.0mph /  17.7km/h 22.0mph /  35.4km/h 52% 0.00in /  0mm
13:59 54.9 °F /  12.7 °C 38.1 °F /  3.4 °C 29.61in /  1002.6hPa WSW 14.0mph /  22.5km/h 20.0mph /  32.2km/h 53% 0.00in /  0mm
14:04 54.2 °F /  12.3 °C 38.4 °F /  3.6 °C 29.61in /  1002.6hPa WSW 14.0mph /  22.5km/h 27.0mph /  43.5km/h 55% 0.00in /  0mm
14:09 54.6 °F /  12.6 °C 37.8 °F /  3.2 °C 29.61in /  1002.6hPa WSW 16.0mph /  25.7km/h 31.0mph /  49.9km/h 53% 0.00in /  0mm
14:14 54.8 °F /  12.7 °C 38.0 °F /  3.3 °C 29.60in /  1002.3hPa WSW 14.0mph /  22.5km/h 31.0mph /  49.9km/h 53% 0.00in /  0mm
14:19 55.5 °F /  13.1 °C 38.6 °F /  3.7 °C 29.61in /  1002.6hPa West 13.0mph /  20.9km/h 26.0mph /  41.8km/h 53% 0.00in /  0mm
14:24 56.0 °F /  13.3 °C 38.6 °F /  3.7 °C 29.60in /  1002.3hPa West 13.0mph /  20.9km/h 26.0mph /  41.8km/h 52% 0.00in /  0mm
14:29 56.3 °F /  13.5 °C 38.4 °F /  3.6 °C 29.60in /  1002.3hPa West 20.0mph /  32.2km/h 22.0mph /  35.4km/h 51% 0.00in /  0mm
14:34 55.1 °F /  12.8 °C 38.3 °F /  3.5 °C 29.60in /  1002.3hPa West 10.0mph /  16.1km/h 28.0mph /  45.1km/h 53% 0.00in /  0mm
14:39 53.9 °F /  12.2 °C 38.1 °F /  3.4 °C 29.60in /  1002.3hPa SW 15.0mph /  24.1km/h 27.0mph /  43.5km/h 55% 0.00in /  0mm
14:44 53.3 °F /  11.8 °C 38.0 °F /  3.3 °C 29.60in /  1002.3hPa SSW 17.0mph /  27.4km/h 26.0mph /  41.8km/h 56% 0.00in /  0mm
14:49 52.8 °F /  11.6 °C 37.5 °F /  3.1 °C 29.60in /  1002.3hPa WSW 15.0mph /  24.1km/h 28.0mph /  45.1km/h 56% 0.00in /  0mm
14:54 52.1 °F /  11.2 °C 37.3 °F /  2.9 °C 29.60in /  1002.3hPa WSW 15.0mph /  24.1km/h 28.0mph /  45.1km/h 57% 0.00in /  0mm
14:59 52.1 °F /  11.2 °C 37.8 °F /  3.2 °C 29.60in /  1002.3hPa WSW 14.0mph /  22.5km/h 32.0mph /  51.5km/h 58% 0.00in /  0mm
15:04 53.2 °F /  11.8 °C 38.4 °F /  3.6 °C 29.60in /  1002.3hPa WNW 8.0mph /  12.9km/h 21.0mph /  33.8km/h 57% 0.00in /  0mm
15:09 53.9 °F /  12.2 °C 39.0 °F /  3.9 °C 29.61in /  1002.6hPa West 18.0mph /  29km/h 23.0mph /  37km/h 57% 0.00in /  0mm
15:14 54.2 °F /  12.3 °C 38.8 °F /  3.8 °C 29.60in /  1002.3hPa WSW 10.0mph /  16.1km/h 26.0mph /  41.8km/h 56% 0.00in /  0mm
15:19 54.4 °F /  12.4 °C 39.0 °F /  3.9 °C 29.61in /  1002.6hPa West 12.0mph /  19.3km/h 26.0mph /  41.8km/h 56% 0.00in /  0mm
15:24 54.4 °F /  12.4 °C 39.0 °F /  3.9 °C 29.61in /  1002.6hPa WNW 7.0mph /  11.3km/h 21.0mph /  33.8km/h 56% 0.00in /  0mm
15:29 54.8 °F /  12.7 °C 38.9 °F /  3.8 °C 29.61in /  1002.6hPa WNW 7.0mph /  11.3km/h 21.0mph /  33.8km/h 55% 0.00in /  0mm
15:34 54.8 °F /  12.7 °C 38.9 °F /  3.8 °C 29.61in /  1002.6hPa West 8.0mph /  12.9km/h 23.0mph /  37km/h 55% 0.00in /  0mm
15:39 54.4 °F /  12.4 °C 39.0 °F /  3.9 °C 29.61in /  1002.6hPa NW 8.0mph /  12.9km/h 23.0mph /  37km/h 56% 0.00in /  0mm
15:44 54.0 °F /  12.2 °C 38.6 °F /  3.7 °C 29.62in /  1002.9hPa West 9.0mph /  14.5km/h 24.0mph /  38.6km/h 56% 0.00in /  0mm
15:49 53.3 °F /  11.8 °C 38.4 °F /  3.6 °C 29.62in /  1002.9hPa WSW 12.0mph /  19.3km/h 24.0mph /  38.6km/h 57% 0.00in /  0mm
15:54 53.2 °F /  11.8 °C 38.8 °F /  3.8 °C 29.62in /  1002.9hPa WSW 12.0mph /  19.3km/h 27.0mph /  43.5km/h 58% 0.00in /  0mm
15:59 53.3 °F /  11.8 °C 38.9 °F /  3.8 °C 29.62in /  1002.9hPa WSW 12.0mph /  19.3km/h 27.0mph /  43.5km/h 58% 0.00in /  0mm
16:04 53.3 °F /  11.8 °C 39.3 °F /  4.1 °C 29.62in /  1002.9hPa WSW 10.0mph /  16.1km/h 20.0mph /  32.2km/h 59% 0.00in /  0mm
16:14 54.6 °F /  12.6 °C 39.7 °F /  4.3 °C 29.61in /  1002.6hPa WSW 10.0mph /  16.1km/h 22.0mph /  35.4km/h 57% 0.00in /  0mm
16:19 54.9 °F /  12.7 °C 39.9 °F /  4.4 °C 29.61in /  1002.6hPa West 10.0mph /  16.1km/h 18.0mph /  29km/h 57% 0.00in /  0mm
16:24 55.3 °F /  12.9 °C 39.9 °F /  4.4 °C 29.61in /  1002.6hPa West 3.0mph /  4.8km/h 23.0mph /  37km/h 56% 0.00in /  0mm
16:29 55.5 °F /  13.1 °C 39.6 °F /  4.2 °C 29.61in /  1002.6hPa WSW 7.0mph /  11.3km/h 23.0mph /  37km/h 55% 0.00in /  0mm
16:34 55.5 °F /  13.1 °C 40.0 °F /  4.4 °C 29.61in /  1002.6hPa WSW 11.0mph /  17.7km/h 26.0mph /  41.8km/h 56% 0.00in /  0mm
16:39 55.6 °F /  13.1 °C 40.1 °F /  4.5 °C 29.61in /  1002.6hPa WNW 9.0mph /  14.5km/h 25.0mph /  40.2km/h 56% 0.00in /  0mm
16:44 55.4 °F /  13 °C 40.0 °F /  4.4 °C 29.61in /  1002.6hPa WNW 6.0mph /  9.7km/h 23.0mph /  37km/h 56% 0.00in /  0mm
16:49 55.0 °F /  12.8 °C 39.6 °F /  4.2 °C 29.61in /  1002.6hPa WSW 10.0mph /  16.1km/h 23.0mph /  37km/h 56% 0.00in /  0mm
16:54 54.8 °F /  12.7 °C 39.8 °F /  4.3 °C 29.61in /  1002.6hPa WSW 10.0mph /  16.1km/h 20.0mph /  32.2km/h 57% 0.00in /  0mm
16:59 54.7 °F /  12.6 °C 39.3 °F /  4.1 °C 29.61in /  1002.6hPa WSW 10.0mph /  16.1km/h 20.0mph /  32.2km/h 56% 0.00in /  0mm
17:04 54.7 °F /  12.6 °C 39.3 °F /  4.1 °C 29.61in /  1002.6hPa WSW 10.0mph /  16.1km/h 19.0mph /  30.6km/h 56% 0.00in /  0mm
17:09 54.4 °F /  12.4 °C 39.0 °F /  3.9 °C 29.61in /  1002.6hPa SSW 8.0mph /  12.9km/h 20.0mph /  32.2km/h 56% 0.00in /  0mm
17:14 53.8 °F /  12.1 °C 39.4 °F /  4.1 °C 29.61in /  1002.6hPa WSW 11.0mph /  17.7km/h 17.0mph /  27.4km/h 58% 0.00in /  0mm
17:19 53.2 °F /  11.8 °C 39.2 °F /  4 °C 29.61in /  1002.6hPa NW 8.0mph /  12.9km/h 18.0mph /  29km/h 59% 0.00in /  0mm
17:24 52.6 °F /  11.4 °C 39.1 °F /  3.9 °C 29.61in /  1002.6hPa SW 7.0mph /  11.3km/h 17.0mph /  27.4km/h 60% 0.00in /  0mm
17:29 51.8 °F /  11 °C 38.3 °F /  3.5 °C 29.61in /  1002.6hPa South 8.0mph /  12.9km/h 12.0mph /  19.3km/h 60% 0.00in /  0mm
17:34 50.7 °F /  10.4 °C 37.7 °F /  3.2 °C 29.62in /  1002.9hPa SW 4.0mph /  6.4km/h 14.0mph /  22.5km/h 61% 0.00in /  0mm
17:39 49.6 °F /  9.8 °C 37.5 °F /  3.1 °C 29.62in /  1002.9hPa SW 9.0mph /  14.5km/h 10.0mph /  16.1km/h 63% 0.00in /  0mm
17:44 48.3 °F /  9.1 °C 37.1 °F /  2.8 °C 29.63in /  1003.3hPa WSW 6.0mph /  9.7km/h 12.0mph /  19.3km/h 65% 0.00in /  0mm
17:49 46.9 °F /  8.3 °C 36.5 °F /  2.5 °C 29.64in /  1003.6hPa SW 6.0mph /  9.7km/h 12.0mph /  19.3km/h 67% 0.00in /  0mm
17:54 45.6 °F /  7.6 °C 36.0 °F /  2.2 °C 29.64in /  1003.6hPa SW 6.0mph /  9.7km/h 13.0mph /  20.9km/h 69% 0.00in /  0mm
17:59 44.7 °F /  7.1 °C 35.5 °F /  1.9 °C 29.65in /  1003.9hPa SW 7.0mph /  11.3km/h 13.0mph /  20.9km/h 70% 0.00in /  0mm
18:04 44.1 °F /  6.7 °C 35.6 °F /  2 °C 29.64in /  1003.6hPa SW 6.0mph /  9.7km/h 14.0mph /  22.5km/h 72% 0.00in /  0mm
18:09 43.4 °F /  6.3 °C 35.3 °F /  1.8 °C 29.64in /  1003.6hPa SW 5.0mph /  8km/h 13.0mph /  20.9km/h 73% 0.00in /  0mm
18:14 42.9 °F /  6.1 °C 35.5 °F /  1.9 °C 29.65in /  1003.9hPa SW 4.0mph /  6.4km/h 12.0mph /  19.3km/h 75% 0.00in /  0mm
18:19 42.6 °F /  5.9 °C 35.6 °F /  2 °C 29.65in /  1003.9hPa SW 6.0mph /  9.7km/h 12.0mph /  19.3km/h 76% 0.00in /  0mm
18:24 42.5 °F /  5.8 °C 35.8 °F /  2.1 °C 29.65in /  1003.9hPa SW 6.0mph /  9.7km/h 13.0mph /  20.9km/h 77% 0.00in /  0mm
18:29 42.5 °F /  5.8 °C 35.8 °F /  2.1 °C 29.65in /  1003.9hPa SW 6.0mph /  9.7km/h 10.0mph /  16.1km/h 77% 0.00in /  0mm
18:34 42.5 °F /  5.8 °C 35.8 °F /  2.1 °C 29.66in /  1004.3hPa SSW 7.0mph /  11.3km/h 10.0mph /  16.1km/h 77% 0.00in /  0mm
18:39 42.6 °F /  5.9 °C 36.2 °F /  2.3 °C 29.66in /  1004.3hPa WSW 5.0mph /  8km/h 13.0mph /  20.9km/h 78% 0.00in /  0mm
18:44 42.6 °F /  5.9 °C 36.2 °F /  2.3 °C 29.66in /  1004.3hPa SW 6.0mph /  9.7km/h 10.0mph /  16.1km/h 78% 0.00in /  0mm
18:49 42.5 °F /  5.8 °C 35.8 °F /  2.1 °C 29.66in /  1004.3hPa SW 5.0mph /  8km/h 12.0mph /  19.3km/h 77% 0.00in /  0mm
18:54 42.5 °F /  5.8 °C 36.1 °F /  2.3 °C 29.66in /  1004.3hPa SW 7.0mph /  11.3km/h 15.0mph /  24.1km/h 78% 0.00in /  0mm
18:59 42.5 °F /  5.8 °C 36.1 °F /  2.3 °C 29.66in /  1004.3hPa SW 5.0mph /  8km/h 12.0mph /  19.3km/h 78% 0.00in /  0mm
19:14 42.5 °F /  5.8 °C 36.1 °F /  2.3 °C 29.67in /  1004.6hPa WSW 6.0mph /  9.7km/h 11.0mph /  17.7km/h 78% 0.00in /  0mm
19:19 42.3 °F /  5.7 °C 35.9 °F /  2.2 °C 29.67in /  1004.6hPa SW 5.0mph /  8km/h 11.0mph /  17.7km/h 78% 0.00in /  0mm
19:24 42.2 °F /  5.7 °C 35.8 °F /  2.1 °C 29.68in /  1005hPa SW 4.0mph /  6.4km/h 9.0mph /  14.5km/h 78% 0.00in /  0mm
19:29 42.1 °F /  5.6 °C 36.1 °F /  2.3 °C 29.68in /  1005hPa SW 5.0mph /  8km/h 11.0mph /  17.7km/h 79% 0.00in /  0mm
19:34 42.0 °F /  5.6 °C 36.0 °F /  2.2 °C 29.68in /  1005hPa SW 5.0mph /  8km/h 11.0mph /  17.7km/h 79% 0.00in /  0mm
19:39 41.8 °F /  5.4 °C 35.8 °F /  2.1 °C 29.68in /  1005hPa SW 4.0mph /  6.4km/h 9.0mph /  14.5km/h 79% 0.00in /  0mm
19:44 41.7 °F /  5.4 °C 35.7 °F /  2.1 °C 29.68in /  1005hPa SW 5.0mph /  8km/h 6.0mph /  9.7km/h 79% 0.00in /  0mm
19:49 41.4 °F /  5.2 °C 35.7 °F /  2.1 °C 29.68in /  1005hPa South 3.0mph /  4.8km/h 7.0mph /  11.3km/h 80% 0.00in /  0mm
19:54 41.2 °F /  5.1 °C 35.5 °F /  1.9 °C 29.69in /  1005.3hPa SW 2.0mph /  3.2km/h 7.0mph /  11.3km/h 80% 0.00in /  0mm
19:59 41.1 °F /  5.1 °C 35.4 °F /  1.9 °C 29.69in /  1005.3hPa SW 2.0mph /  3.2km/h 8.0mph /  12.9km/h 80% 0.00in /  0mm
20:04 40.9 °F /  4.9 °C 35.2 °F /  1.8 °C 29.69in /  1005.3hPa SW 3.0mph /  4.8km/h 5.0mph /  8km/h 80% 0.00in /  0mm
20:09 40.7 °F /  4.8 °C 35.3 °F /  1.8 °C 29.69in /  1005.3hPa South 3.0mph /  4.8km/h 6.0mph /  9.7km/h 81% 0.00in /  0mm
20:14 40.6 °F /  4.8 °C 35.2 °F /  1.8 °C 29.69in /  1005.3hPa SW 3.0mph /  4.8km/h 7.0mph /  11.3km/h 81% 0.00in /  0mm
20:19 40.5 °F /  4.7 °C 35.1 °F /  1.7 °C 29.69in /  1005.3hPa SW 4.0mph /  6.4km/h 7.0mph /  11.3km/h 81% 0.00in /  0mm
20:24 40.4 °F /  4.7 °C 35.3 °F /  1.8 °C 29.69in /  1005.3hPa SW 3.0mph /  4.8km/h 7.0mph /  11.3km/h 82% 0.00in /  0mm
20:29 40.3 °F /  4.6 °C 35.2 °F /  1.8 °C 29.69in /  1005.3hPa SW 3.0mph /  4.8km/h 7.0mph /  11.3km/h 82% 0.00in /  0mm
20:34 40.2 °F /  4.6 °C 35.1 °F /  1.7 °C 29.69in /  1005.3hPa SSW 3.0mph /  4.8km/h 7.0mph /  11.3km/h 82% 0.00in /  0mm
20:39 40.1 °F /  4.5 °C 35.0 °F /  1.7 °C 29.69in /  1005.3hPa SSW 3.0mph /  4.8km/h 6.0mph /  9.7km/h 82% 0.00in /  0mm
20:44 40.0 °F /  4.4 °C 34.9 °F /  1.6 °C 29.69in /  1005.3hPa SSW 3.0mph /  4.8km/h 6.0mph /  9.7km/h 82% 0.00in /  0mm
20:49 40.0 °F /  4.4 °C 35.3 °F /  1.8 °C 29.69in /  1005.3hPa SW 3.0mph /  4.8km/h 6.0mph /  9.7km/h 83% 0.00in /  0mm
20:54 39.9 °F /  4.4 °C 35.2 °F /  1.8 °C 29.69in /  1005.3hPa WSW 5.0mph /  8km/h 6.0mph /  9.7km/h 83% 0.00in /  0mm
20:59 39.9 °F /  4.4 °C 35.2 °F /  1.8 °C 29.70in /  1005.6hPa WSW 2.0mph /  3.2km/h 6.0mph /  9.7km/h 83% 0.00in /  0mm
21:04 40.0 °F /  4.4 °C 35.3 °F /  1.8 °C 29.70in /  1005.6hPa WSW 3.0mph /  4.8km/h 5.0mph /  8km/h 83% 0.00in /  0mm
21:09 40.0 °F /  4.4 °C 35.3 °F /  1.8 °C 29.70in /  1005.6hPa SSW 2.0mph /  3.2km/h 6.0mph /  9.7km/h 83% 0.00in /  0mm
21:14 39.9 °F /  4.4 °C 35.2 °F /  1.8 °C 29.70in /  1005.6hPa SW 3.0mph /  4.8km/h 5.0mph /  8km/h 83% 0.00in /  0mm
21:19 39.8 °F /  4.3 °C 35.1 °F /  1.7 °C 29.70in /  1005.6hPa SW 3.0mph /  4.8km/h 6.0mph /  9.7km/h 83% 0.00in /  0mm
21:24 39.7 °F /  4.3 °C 35.0 °F /  1.7 °C 29.70in /  1005.6hPa SW 3.0mph /  4.8km/h 6.0mph /  9.7km/h 83% 0.00in /  0mm
21:29 39.6 °F /  4.2 °C 34.9 °F /  1.6 °C 29.70in /  1005.6hPa SW 3.0mph /  4.8km/h 5.0mph /  8km/h 83% 0.00in /  0mm
21:34 39.4 °F /  4.1 °C 34.7 °F /  1.5 °C 29.70in /  1005.6hPa SW 3.0mph /  4.8km/h 6.0mph /  9.7km/h 83% 0.00in /  0mm
21:39 39.3 °F /  4.1 °C 34.6 °F /  1.4 °C 29.70in /  1005.6hPa SW 3.0mph /  4.8km/h 7.0mph /  11.3km/h 83% 0.00in /  0mm
21:44 39.2 °F /  4 °C 34.8 °F /  1.6 °C 29.70in /  1005.6hPa SW 2.0mph /  3.2km/h 5.0mph /  8km/h 84% 0.00in /  0mm
21:49 39.0 °F /  3.9 °C 34.6 °F /  1.4 °C 29.70in /  1005.6hPa South 3.0mph /  4.8km/h 5.0mph /  8km/h 84% 0.00in /  0mm
21:54 39.0 °F /  3.9 °C 34.6 °F /  1.4 °C 29.71in /  1006hPa SW 3.0mph /  4.8km/h 5.0mph /  8km/h 84% 0.00in /  0mm
21:59 38.9 °F /  3.8 °C 34.5 °F /  1.4 °C 29.71in /  1006hPa SSW 2.0mph /  3.2km/h 4.0mph /  6.4km/h 84% 0.00in /  0mm
22:04 38.7 °F /  3.7 °C 34.3 °F /  1.3 °C 29.71in /  1006hPa SW 1.0mph /  1.6km/h 5.0mph /  8km/h 84% 0.00in /  0mm
22:14 38.3 °F /  3.5 °C 33.9 °F /  1.1 °C 29.71in /  1006hPa SSW 3.0mph /  4.8km/h 5.0mph /  8km/h 84% 0.00in /  0mm
22:19 38.0 °F /  3.3 °C 33.6 °F /  0.9 °C 29.71in /  1006hPa South 3.0mph /  4.8km/h 5.0mph /  8km/h 84% 0.00in /  0mm
22:24 37.8 °F /  3.2 °C 33.7 °F /  0.9 °C 29.71in /  1006hPa SSW 2.0mph /  3.2km/h 5.0mph /  8km/h 85% 0.00in /  0mm
22:29 37.7 °F /  3.2 °C 33.6 °F /  0.9 °C 29.71in /  1006hPa SSW 3.0mph /  4.8km/h 7.0mph /  11.3km/h 85% 0.00in /  0mm
22:39 37.7 °F /  3.2 °C 33.9 °F /  1.1 °C 29.72in /  1006.3hPa SSW 3.0mph /  4.8km/h 6.0mph /  9.7km/h 86% 0.00in /  0mm
22:44 37.7 °F /  3.2 °C 33.9 °F /  1.1 °C 29.72in /  1006.3hPa SW 8.0mph /  12.9km/h 9.0mph /  14.5km/h 86% 0.00in /  0mm
22:49 37.7 °F /  3.2 °C 33.9 °F /  1.1 °C 29.72in /  1006.3hPa SW 7.0mph /  11.3km/h 10.0mph /  16.1km/h 86% 0.00in /  0mm
22:54 37.7 °F /  3.2 °C 33.9 °F /  1.1 °C 29.72in /  1006.3hPa SW 7.0mph /  11.3km/h 7.0mph /  11.3km/h 86% 0.00in /  0mm
22:59 37.7 °F /  3.2 °C 33.9 °F /  1.1 °C 29.72in /  1006.3hPa SW 6.0mph /  9.7km/h 8.0mph /  12.9km/h 86% 0.00in /  0mm
23:04 37.7 °F /  3.2 °C 33.9 °F /  1.1 °C 29.72in /  1006.3hPa SW 3.0mph /  4.8km/h 7.0mph /  11.3km/h 86% 0.00in /  0mm
23:09 37.7 °F /  3.2 °C 33.9 °F /  1.1 °C 29.72in /  1006.3hPa SW 3.0mph /  4.8km/h 8.0mph /  12.9km/h 86% 0.00in /  0mm
23:14 37.7 °F /  3.2 °C 33.9 °F /  1.1 °C 29.72in /  1006.3hPa SW 3.0mph /  4.8km/h 8.0mph /  12.9km/h 86% 0.00in /  0mm
23:19 37.6 °F /  3.1 °C 33.8 °F /  1 °C 29.72in /  1006.3hPa SW 5.0mph /  8km/h 5.0mph /  8km/h 86% 0.00in /  0mm
23:24 37.7 °F /  3.2 °C 33.9 °F /  1.1 °C 29.72in /  1006.3hPa SW 3.0mph /  4.8km/h 8.0mph /  12.9km/h 86% 0.00in /  0mm
23:29 37.6 °F /  3.1 °C 33.8 °F /  1 °C 29.73in /  1006.7hPa SW 4.0mph /  6.4km/h 9.0mph /  14.5km/h 86% 0.00in /  0mm
23:34 37.7 °F /  3.2 °C 33.9 °F /  1.1 °C 29.73in /  1006.7hPa WSW 5.0mph /  8km/h 8.0mph /  12.9km/h 86% 0.00in /  0mm
23:39 37.7 °F /  3.2 °C 34.2 °F /  1.2 °C 29.73in /  1006.7hPa SW 7.0mph /  11.3km/h 7.0mph /  11.3km/h 87% 0.00in /  0mm
23:44 37.9 °F /  3.3 °C 34.4 °F /  1.3 °C 29.73in /  1006.7hPa WSW 4.0mph /  6.4km/h 8.0mph /  12.9km/h 87% 0.00in /  0mm
23:54 37.8 °F /  3.2 °C 34.3 °F /  1.3 °C 29.73in /  1006.7hPa SW 4.0mph /  6.4km/h 8.0mph /  12.9km/h 87% 0.00in /  0mm
23:59 37.8 °F /  3.2 °C 34.3 °F /  1.3 °C 29.73in /  1006.7hPa SW 4.0mph /  6.4km/h 9.0mph /  14.5km/h 87% 0.00in /  0mm
Buffalo, New York, USA
Compliments of Weather Underground - 2.5 mb